Time;durP1;ratioP1;P1;durP2;ratioP2;P2;SDS_P1;SDS_P2;PMS_P1;PMS_P2;Temp;Humidity;BMP_temperature;BMP_pressure;BME280_temperature;BME280_humidity;BME280_pressure;Samples;Min_cycle;Max_cycle;Signal;HPM_P1;HPM_P2
2024/03/30 00:00:49;;;;;;;2.20;1.30;;;;;;;9.38;60.44;98612.65;101322;1264;4634090;-26
2024/03/30 00:03:17;;;;;;;5.10;1.70;;;;;;;9.30;60.33;98612.27;104761;1272;61201;-26
2024/03/30 00:05:45;;;;;;;2.90;1.90;;;;;;;9.17;60.74;98618.85;104844;1269;61128;-28
2024/03/30 00:08:13;;;;;;;3.70;1.50;;;;;;;8.98;60.91;98625.75;104725;1263;73029;-28
2024/03/30 00:10:40;;;;;;;4.30;2.20;;;;;;;8.76;61.27;98629.10;104883;1263;74433;-28
2024/03/30 00:13:09;;;;;;;4.50;2.20;;;;;;;8.49;62.23;98630.92;104822;1269;72653;-28
2024/03/30 00:22:42;;;;;;;1.70;0.90;;;;;;;9.49;59.83;98628.73;102580;1292;600444;-26
2024/03/30 00:33:14;;;;;;;4.20;1.50;;;;;;;8.82;61.30;98628.08;102489;1291;615173;-27
2024/03/30 00:35:41;;;;;;;3.10;1.70;;;;;;;8.69;61.52;98623.08;104878;1267;61227;-26
2024/03/30 00:38:08;;;;;;;2.50;1.40;;;;;;;8.56;61.57;98627.39;105058;1269;61272;-26
2024/03/30 00:40:36;;;;;;;2.20;1.20;;;;;;;8.37;62.23;98621.75;104839;1267;73328;-27
2024/03/30 00:43:03;;;;;;;3.30;1.70;;;;;;;8.97;61.87;98624.62;104843;1267;74838;-27
2024/03/30 00:45:30;;;;;;;2.10;1.10;;;;;;;9.70;59.93;98623.31;101686;1267;4604225;-28
2024/03/30 00:47:57;;;;;;;5.20;1.30;;;;;;;9.86;59.09;98620.62;105525;1258;61077;-27
2024/03/30 00:50:24;;;;;;;3.50;1.70;;;;;;;9.73;58.80;98620.60;105536;1259;61179;-27
2024/03/30 00:52:51;;;;;;;2.70;1.40;;;;;;;9.56;59.13;98618.58;105451;1257;72068;-28
2024/03/30 00:55:19;;;;;;;2.30;1.20;;;;;;;9.29;59.77;98617.72;105517;1258;74578;-27
2024/03/30 00:57:46;;;;;;;4.10;1.80;;;;;;;9.08;60.04;98615.59;105631;1257;72692;-27
2024/03/30 01:00:16;;;;;;;2.20;1.50;;;;;;;8.94;60.45;98617.97;105607;1256;61052;-28
2024/03/30 01:02:43;;;;;;;2.60;1.60;;;;;;;8.76;60.72;98614.20;105457;1260;61121;-27
2024/03/30 01:05:10;;;;;;;4.30;1.10;;;;;;;8.69;61.17;98613.88;105547;1257;74230;-27
2024/03/30 01:07:37;;;;;;;2.40;1.00;;;;;;;8.56;61.76;98613.23;105646;1259;74332;-27
2024/03/30 01:10:10;;;;;;;2.60;1.00;;;;;;;9.21;61.26;98613.50;105636;1257;72446;-27
2024/03/30 01:12:38;;;;;;;1.60;0.80;;;;;;;9.84;59.70;98614.73;105563;1257;61178;-29
2024/03/30 01:15:06;;;;;;;1.60;1.00;;;;;;;9.87;59.31;98613.90;105584;1258;61077;-28
2024/03/30 01:17:37;;;;;;;3.90;2.00;;;;;;;9.78;59.35;98608.60;105548;1260;72915;-27
2024/03/30 01:20:05;;;;;;;4.20;1.80;;;;;;;9.61;59.20;98604.48;105623;1263;74364;-27
2024/03/30 01:22:34;;;;;;;2.10;1.40;;;;;;;9.48;59.25;98604.36;105601;1261;72517;-28
2024/03/30 01:25:02;;;;;;;1.80;1.20;;;;;;;9.24;59.60;98606.70;105602;1257;61115;-28
2024/03/30 01:27:30;;;;;;;3.20;1.40;;;;;;;9.27;59.47;98606.11;105436;1257;61106;-28
2024/03/30 01:30:09;;;;;;;5.70;1.00;;;;;;;9.19;59.51;98602.21;105192;1261;71783;-27
2024/03/30 01:32:37;;;;;;;0.50;0.50;;;;;;;9.21;60.29;98606.58;105510;1263;74449;-28
2024/03/30 01:35:05;;;;;;;0.80;0.50;;;;;;;9.90;58.70;98603.27;105555;1257;72516;-28
2024/03/30 01:37:32;;;;;;;3.70;1.30;;;;;;;10.30;57.42;98605.09;105473;1257;61088;-28
2024/03/30 01:39:59;;;;;;;2.50;1.00;;;;;;;10.27;56.92;98604.25;105294;1260;61086;-28
2024/03/30 01:42:27;;;;;;;3.10;1.40;;;;;;;10.15;57.08;98597.08;105445;1257;74352;-27
2024/03/30 01:44:54;;;;;;;1.00;0.80;;;;;;;10.08;57.32;98602.02;105477;1257;74171;-28
2024/03/30 01:47:21;;;;;;;3.60;1.40;;;;;;;9.80;58.13;98603.73;105575;1257;72702;-27
2024/03/30 01:49:49;;;;;;;1.60;0.90;;;;;;;9.68;58.28;98602.52;105498;1263;61120;-28
2024/03/30 01:52:17;;;;;;;2.10;1.10;;;;;;;9.57;58.73;98601.89;105574;1263;61214;-27
2024/03/30 01:54:44;;;;;;;4.40;1.60;;;;;;;9.47;59.15;98602.01;105580;1258;72625;-27
2024/03/30 01:57:13;;;;;;;1.40;1.00;;;;;;;9.48;59.15;98597.98;105616;1257;74385;-28
2024/03/30 01:59:41;;;;;;;3.60;1.10;;;;;;;10.09;57.84;98596.27;105484;1257;71510;-28
2024/03/30 02:02:11;;;;;;;1.80;1.00;;;;;;;10.36;56.63;98595.34;105497;1257;61144;-28
2024/03/30 02:04:38;;;;;;;1.40;0.90;;;;;;;10.40;56.62;98599.48;105538;1261;61142;-27
2024/03/30 02:07:06;;;;;;;3.20;1.10;;;;;;;10.30;56.67;98600.89;105664;1257;72765;-27
2024/03/30 02:09:33;;;;;;;1.30;1.10;;;;;;;10.08;56.97;98595.84;105563;1257;74367;-27
2024/03/30 02:12:00;;;;;;;1.50;1.20;;;;;;;9.96;57.35;98589.09;105610;1258;73188;-27
2024/03/30 02:14:27;;;;;;;1.00;0.70;;;;;;;9.64;57.59;98585.20;105220;1258;61140;-28
2024/03/30 02:16:53;;;;;;;2.60;1.50;;;;;;;9.49;57.92;98586.42;105326;1260;61115;-27
2024/03/30 02:19:20;;;;;;;2.90;1.50;;;;;;;9.36;58.29;98585.07;105504;1258;73828;-28
2024/03/30 02:21:47;;;;;;;4.90;1.50;;;;;;;9.38;58.37;98583.33;105652;1260;74333;-28
2024/03/30 02:24:14;;;;;;;4.40;1.00;;;;;;;9.27;59.20;98583.95;105554;1257;71166;-27
2024/03/30 02:26:41;;;;;;;2.90;1.20;;;;;;;9.77;58.22;98584.25;105485;1256;61057;-28
2024/03/30 02:29:08;;;;;;;4.30;2.00;;;;;;;10.25;56.95;98585.16;105574;1257;61086;-27
2024/03/30 02:31:35;;;;;;;3.10;1.20;;;;;;;10.28;56.43;98578.12;105581;1260;73825;-27
2024/03/30 02:34:03;;;;;;;6.70;1.70;;;;;;;10.19;56.32;98578.96;105629;1258;74821;-28
2024/03/30 02:36:32;;;;;;;5.10;1.50;;;;;;;9.93;56.37;98580.76;105276;1257;72561;-27
2024/03/30 02:38:59;;;;;;;5.10;1.40;;;;;;;9.75;56.85;98577.11;105174;1257;61231;-27
2024/03/30 02:41:26;;;;;;;2.10;1.20;;;;;;;9.59;57.13;98576.27;105582;1260;61143;-27
2024/03/30 02:43:56;;;;;;;4.60;1.30;;;;;;;9.35;58.13;98571.50;105567;1258;73779;-28
2024/03/30 02:46:22;;;;;;;4.40;1.00;;;;;;;9.24;58.31;98570.16;105595;1263;74446;-28
2024/03/30 02:48:49;;;;;;;4.10;1.50;;;;;;;9.04;58.80;98567.42;105368;1258;72821;-28
2024/03/30 02:51:17;;;;;;;5.40;1.50;;;;;;;9.06;58.83;98562.77;105380;1261;61062;-27
2024/03/30 02:53:43;;;;;;;3.40;1.80;;;;;;;8.96;59.04;98559.77;105388;1260;61092;-28
2024/03/30 02:56:10;;;;;;;2.50;0.90;;;;;;;9.53;57.32;98560.25;105489;1257;73621;-28
2024/03/30 02:58:37;;;;;;;1.60;1.30;;;;;;;9.88;56.16;98571.69;105547;1257;73224;-27
2024/03/30 03:01:04;;;;;;;3.00;1.40;;;;;;;9.97;55.74;98568.34;105389;1257;72649;-28
2024/03/30 03:03:31;;;;;;;5.00;1.20;;;;;;;9.81;55.88;98564.13;105407;1257;61143;-27
2024/03/30 03:05:59;;;;;;;3.60;1.80;;;;;;;9.74;56.17;98563.20;105274;1260;61226;-27
2024/03/30 03:08:27;;;;;;;2.30;1.10;;;;;;;9.60;56.18;98564.23;105498;1258;74426;-28
2024/03/30 03:10:54;;;;;;;1.40;1.10;;;;;;;9.49;56.70;98565.30;105440;1258;74299;-27
2024/03/30 03:13:21;;;;;;;2.60;1.30;;;;;;;9.37;57.17;98561.77;105545;1257;72640;-28
2024/03/30 03:15:48;;;;;;;6.40;1.80;;;;;;;9.16;57.52;98556.98;105393;1258;61077;-27
2024/03/30 03:18:15;;;;;;;6.30;1.70;;;;;;;9.14;57.69;98559.23;105543;1260;61083;-28
2024/03/30 03:20:42;;;;;;;5.10;1.20;;;;;;;9.09;57.67;98562.58;105629;1258;73821;-27
2024/03/30 03:23:09;;;;;;;2.10;1.10;;;;;;;9.24;57.81;98559.21;105632;1260;74201;-28
2024/03/30 03:25:36;;;;;;;2.00;1.30;;;;;;;9.72;55.96;98562.95;105546;1258;72440;-28
2024/03/30 03:28:03;;;;;;;2.50;1.10;;;;;;;9.93;55.20;98566.80;105627;1260;61157;-28
2024/03/30 03:30:32;;;;;;;1.10;0.80;;;;;;;9.93;55.12;98569.73;105592;1263;61221;-28
2024/03/30 03:32:59;;;;;;;1.90;1.70;;;;;;;9.89;55.42;98573.70;105577;1257;73579;-28
2024/03/30 03:35:27;;;;;;;4.90;1.40;;;;;;;9.70;55.72;98575.98;105602;1258;74278;-28
2024/03/30 03:37:54;;;;;;;6.20;1.90;;;;;;;9.52;56.21;98575.29;105601;1258;72973;-27
2024/03/30 03:40:21;;;;;;;1.90;1.00;;;;;;;9.38;56.32;98571.21;105599;1258;61051;-27
2024/03/30 03:42:47;;;;;;;2.80;1.40;;;;;;;9.39;56.55;98571.48;105453;1260;61205;-28
2024/03/30 03:45:14;;;;;;;6.40;1.80;;;;;;;9.25;56.67;98571.98;105544;1257;74106;-28
2024/03/30 03:47:41;;;;;;;2.80;1.40;;;;;;;9.14;57.18;98571.44;105351;1257;74182;-28
2024/03/30 03:50:08;;;;;;;8.70;2.00;;;;;;;9.03;57.26;98569.46;105614;1257;73014;-27
2024/03/30 03:52:35;;;;;;;3.90;1.20;;;;;;;9.06;57.38;98568.96;105615;1260;61038;-27
2024/03/30 03:55:02;;;;;;;1.10;0.70;;;;;;;9.09;57.28;98569.84;105459;1258;61160;-28
2024/03/30 03:57:30;;;;;;;2.80;1.50;;;;;;;9.73;55.69;98576.94;105287;1260;73829;-28
2024/03/30 03:59:56;;;;;;;5.10;2.00;;;;;;;9.89;55.20;98581.38;105518;1260;74460;-28
2024/03/30 04:02:23;;;;;;;2.10;1.20;;;;;;;9.94;55.11;98582.48;105625;1260;71539;-28
2024/03/30 04:04:50;;;;;;;2.60;2.20;;;;;;;9.91;54.94;98584.10;105548;1258;61040;-28
2024/03/30 04:07:17;;;;;;;2.40;1.50;;;;;;;9.85;55.22;98584.08;105571;1260;61108;-28
2024/03/30 04:09:44;;;;;;;0.70;0.70;;;;;;;9.74;55.50;98581.02;105661;1260;72606;-28
2024/03/30 04:12:11;;;;;;;4.20;0.90;;;;;;;9.63;55.71;98578.48;105657;1260;73153;-28
2024/03/30 04:14:38;;;;;;;3.20;1.50;;;;;;;9.57;55.64;98575.02;105587;1258;71690;-27
2024/03/30 04:17:05;;;;;;;4.30;1.30;;;;;;;9.51;55.99;98575.85;105646;1260;61011;-28
2024/03/30 04:19:32;;;;;;;3.90;1.30;;;;;;;9.50;56.04;98583.09;105574;1263;61151;-27
2024/03/30 04:22:02;;;;;;;2.80;1.50;;;;;;;9.48;56.23;98584.96;105501;1263;73575;-27
2024/03/30 04:24:29;;;;;;;2.40;1.40;;;;;;;9.49;56.37;98583.30;105486;1262;74377;-28
2024/03/30 04:26:56;;;;;;;3.40;1.40;;;;;;;9.55;56.18;98580.02;105341;1258;73350;-28
2024/03/30 04:29:23;;;;;;;3.30;1.40;;;;;;;9.42;56.35;98581.77;105451;1257;61094;-27
2024/03/30 04:31:49;;;;;;;2.30;0.90;;;;;;;9.77;55.86;98587.34;105334;1260;61153;-28
2024/03/30 04:34:16;;;;;;;1.70;1.00;;;;;;;10.16;54.31;98586.42;105455;1260;74197;-28
2024/03/30 04:36:43;;;;;;;3.00;1.20;;;;;;;10.41;53.85;98587.46;105595;1260;74334;-27
2024/03/30 04:39:10;;;;;;;4.70;1.80;;;;;;;10.25;53.88;98586.55;105624;1257;72362;-27
2024/03/30 04:41:37;;;;;;;3.50;1.70;;;;;;;10.24;54.15;98583.32;105606;1260;61336;-27
2024/03/30 04:44:04;;;;;;;1.40;1.20;;;;;;;10.26;54.53;98586.70;105649;1260;61218;-28
2024/03/30 04:46:31;;;;;;;6.20;1.80;;;;;;;10.13;54.69;98585.33;105636;1260;74893;-27
2024/03/30 04:48:58;;;;;;;3.30;2.00;;;;;;;10.12;54.72;98588.42;105611;1260;74301;-27
2024/03/30 04:51:25;;;;;;;7.40;1.60;;;;;;;10.07;54.91;98589.80;105511;1258;72636;-28
2024/03/30 04:53:52;;;;;;;2.30;1.30;;;;;;;10.06;54.70;98589.95;105612;1263;61339;-27
2024/03/30 04:56:19;;;;;;;5.50;1.40;;;;;;;10.01;54.93;98592.75;105620;1260;61156;-27
2024/03/30 04:58:46;;;;;;;5.10;1.40;;;;;;;10.05;54.93;98590.83;105597;1257;75034;-27
2024/03/30 05:01:13;;;;;;;6.30;2.20;;;;;;;10.06;55.10;98582.85;105569;1260;74317;-27
2024/03/30 05:03:40;;;;;;;5.00;1.20;;;;;;;10.13;55.22;98583.24;105535;1260;72671;-27
2024/03/30 05:06:07;;;;;;;4.30;2.20;;;;;;;10.11;55.09;98585.19;105547;1258;61345;-27
2024/03/30 05:08:34;;;;;;;2.90;1.00;;;;;;;10.12;54.87;98585.58;105345;1258;61141;-27
2024/03/30 05:11:01;;;;;;;3.20;1.50;;;;;;;10.12;54.54;98589.27;105277;1257;74492;-27
2024/03/30 05:13:28;;;;;;;7.50;1.90;;;;;;;10.20;54.89;98586.76;105387;1260;74103;-27
2024/03/30 05:15:55;;;;;;;1.60;1.00;;;;;;;10.21;54.87;98585.17;105452;1257;71652;-27
2024/03/30 05:18:22;;;;;;;5.10;1.40;;;;;;;10.29;54.58;98586.18;105453;1257;61247;-27
2024/03/30 05:21:02;;;;;;;3.90;1.50;;;;;;;10.25;54.58;98588.41;105505;1267;61230;-27
2024/03/30 05:23:33;;;;;;;3.40;1.10;;;;;;;10.34;54.73;98588.39;105472;1263;74594;-27
2024/03/30 05:26:02;;;;;;;4.40;1.40;;;;;;;10.44;54.37;98586.19;105369;1257;74411;-27
2024/03/30 05:28:34;;;;;;;2.40;1.60;;;;;;;10.52;54.16;98580.27;105464;1263;72823;-27
2024/03/30 05:31:04;;;;;;;4.40;1.00;;;;;;;10.60;54.18;98580.02;105309;1258;61386;-28
2024/03/30 05:33:32;;;;;;;3.30;1.70;;;;;;;10.55;54.00;98579.11;105609;1262;61240;-27
2024/03/30 05:35:59;;;;;;;2.20;1.40;;;;;;;10.54;53.96;98576.98;105614;1260;75011;-27
2024/03/30 05:38:25;;;;;;;3.80;1.80;;;;;;;10.68;54.09;98581.05;105616;1257;74339;-27
2024/03/30 05:40:52;;;;;;;3.30;1.70;;;;;;;10.75;53.89;98583.60;105359;1258;72443;-27
2024/03/30 05:43:19;;;;;;;2.50;1.70;;;;;;;10.78;53.89;98584.08;105348;1261;61413;-27
2024/03/30 05:45:48;;;;;;;3.20;2.30;;;;;;;10.97;53.51;98585.23;105451;1260;61291;-27
2024/03/30 05:48:15;;;;;;;3.60;1.30;;;;;;;11.05;53.30;98584.27;105276;1263;74527;-27
2024/03/30 05:50:42;;;;;;;5.30;1.70;;;;;;;11.20;53.56;98583.23;105410;1263;74769;-27
2024/03/30 05:53:09;;;;;;;5.40;2.10;;;;;;;11.22;53.25;98585.66;105394;1260;72643;-27
2024/03/30 05:55:36;;;;;;;2.40;1.20;;;;;;;11.22;53.42;98583.52;105521;1263;61337;-27
2024/03/30 05:58:03;;;;;;;4.50;1.80;;;;;;;11.37;53.27;98581.48;105569;1260;61253;-28
2024/03/30 06:00:31;;;;;;;5.50;1.90;;;;;;;11.47;53.28;98579.20;105781;1257;74334;-27
2024/03/30 06:02:58;;;;;;;3.50;1.30;;;;;;;11.61;53.28;98581.63;105642;1259;74288;-27
2024/03/30 06:05:26;;;;;;;2.30;1.50;;;;;;;11.64;52.86;98580.04;105624;1257;72508;-27
2024/03/30 06:07:53;;;;;;;2.70;1.40;;;;;;;11.72;53.09;98578.23;105768;1259;62119;-27
2024/03/30 06:10:20;;;;;;;1.30;1.00;;;;;;;11.85;52.67;98575.37;105767;1258;61246;-27
2024/03/30 06:12:47;;;;;;;4.30;2.10;;;;;;;11.90;52.87;98572.98;105893;1256;75103;-27
2024/03/30 06:15:14;;;;;;;2.10;1.30;;;;;;;12.12;52.58;98572.84;105778;1256;74265;-28
2024/03/30 06:17:41;;;;;;;3.60;1.80;;;;;;;12.18;52.05;98572.05;105523;1256;73194;-27
2024/03/30 06:20:08;;;;;;;2.40;1.40;;;;;;;12.28;52.01;98571.27;105855;1257;61339;-27
2024/03/30 06:22:36;;;;;;;3.20;1.30;;;;;;;12.50;51.65;98573.08;105912;1252;61226;-27
2024/03/30 06:25:04;;;;;;;3.80;1.60;;;;;;;12.57;51.46;98571.50;105842;1257;75223;-27
2024/03/30 06:27:32;;;;;;;3.70;1.10;;;;;;;12.71;51.55;98568.39;105690;1257;74284;-27
2024/03/30 06:29:59;;;;;;;2.00;1.30;;;;;;;12.77;51.01;98571.14;105798;1257;71423;-27
2024/03/30 06:32:26;;;;;;;2.90;1.50;;;;;;;12.89;50.92;98564.77;105844;1256;61425;-27
2024/03/30 06:34:53;;;;;;;3.70;1.90;;;;;;;13.04;50.98;98562.27;105732;1254;61193;-27
2024/03/30 06:37:20;;;;;;;4.20;1.50;;;;;;;13.20;50.43;98563.55;105737;1257;74591;-27
2024/03/30 06:45:18;;;;;;;3.30;1.50;;;;;;;13.83;49.57;98550.81;105885;1256;61288;-27
2024/03/30 06:47:45;;;;;;;2.60;1.00;;;;;;;14.03;48.91;98549.16;105893;1264;61269;-27
2024/03/30 06:50:12;;;;;;;3.30;2.00;;;;;;;14.21;48.77;98549.52;105834;1258;74604;-27
2024/03/30 06:52:39;;;;;;;1.70;1.00;;;;;;;14.56;48.36;98552.85;105761;1257;74799;-27
2024/03/30 06:55:07;;;;;;;4.30;1.20;;;;;;;14.59;48.17;98546.29;105833;1257;72483;-28
2024/03/30 06:57:34;;;;;;;1.30;0.90;;;;;;;14.78;47.67;98548.09;105862;1254;61381;-27
2024/03/30 07:00:04;;;;;;;3.10;1.40;;;;;;;15.01;47.68;98548.79;105883;1257;61227;-27
2024/03/30 07:02:32;;;;;;;2.50;1.10;;;;;;;15.27;47.12;98550.79;105904;1255;74887;-27
2024/03/30 07:04:59;;;;;;;3.10;1.30;;;;;;;15.39;46.71;98551.08;105746;1254;74789;-27
2024/03/30 07:07:26;;;;;;;4.20;1.40;;;;;;;15.65;46.26;98549.61;105718;1254;72824;-27
2024/03/30 07:09:53;;;;;;;2.40;1.20;;;;;;;15.85;45.56;98556.33;105657;1257;61330;-27
2024/03/30 07:12:20;;;;;;;2.00;0.80;;;;;;;15.93;46.07;98552.16;105528;1257;61213;-27
2024/03/30 07:14:47;;;;;;;4.90;1.50;;;;;;;16.18;45.31;98550.80;105860;1256;75164;-27
2024/03/30 07:17:14;;;;;;;3.30;1.10;;;;;;;16.46;44.92;98553.76;105692;1257;74311;-28
2024/03/30 07:19:41;;;;;;;3.90;1.20;;;;;;;16.63;45.13;98552.67;105785;1260;72530;-27
2024/03/30 07:22:08;;;;;;;2.70;1.10;;;;;;;16.72;44.40;98554.61;105850;1257;61368;-28
2024/03/30 07:24:35;;;;;;;6.30;1.30;;;;;;;16.96;44.75;98555.58;105553;1256;61256;-28
2024/03/30 07:27:04;;;;;;;2.20;1.30;;;;;;;17.23;44.57;98548.64;105634;1255;74502;-27
2024/03/30 07:29:32;;;;;;;3.80;1.60;;;;;;;17.43;44.33;98553.49;105846;1257;74156;-28
2024/03/30 07:32:00;;;;;;;1.00;0.80;;;;;;;17.68;43.93;98550.91;105824;1253;72488;-28
2024/03/30 07:34:28;;;;;;;5.90;1.20;;;;;;;18.02;43.67;98558.33;105675;1257;61282;-27
2024/03/30 07:36:54;;;;;;;2.90;0.80;;;;;;;18.31;42.91;98554.84;105851;1257;61228;-28
2024/03/30 07:39:21;;;;;;;4.70;1.10;;;;;;;18.55;42.39;98551.29;105748;1254;74479;-27
2024/03/30 07:41:48;;;;;;;2.00;0.90;;;;;;;18.58;41.74;98543.17;105711;1257;74302;-27
2024/03/30 07:44:18;;;;;;;3.40;1.30;;;;;;;18.73;41.88;98550.92;105810;1254;72428;-28
2024/03/30 07:46:45;;;;;;;1.30;0.70;;;;;;;18.77;41.60;98555.09;105638;1254;61358;-27
2024/03/30 07:49:12;;;;;;;4.60;1.70;;;;;;;19.24;42.05;98555.74;105748;1257;61212;-27
2024/03/30 07:51:39;;;;;;;2.90;1.40;;;;;;;19.56;41.10;98555.63;105910;1254;74429;-27
2024/03/30 07:54:06;;;;;;;4.90;1.00;;;;;;;19.69;40.90;98549.80;105859;1258;74324;-27
2024/03/30 07:56:33;;;;;;;3.20;1.10;;;;;;;19.88;40.63;98551.48;105874;1255;72485;-27
2024/03/30 07:59:01;;;;;;;3.00;1.00;;;;;;;19.62;40.44;98551.35;105829;1252;61326;-28
2024/03/30 08:01:31;;;;;;;3.20;1.40;;;;;;;19.71;41.20;98552.42;105762;1256;61224;-28
2024/03/30 08:03:58;;;;;;;4.00;1.20;;;;;;;19.80;40.80;98547.17;105893;1254;74297;-28
2024/03/30 08:06:25;;;;;;;3.70;1.10;;;;;;;19.96;40.49;98551.11;105720;1256;74397;-28
2024/03/30 08:08:52;;;;;;;2.20;0.80;;;;;;;20.18;40.05;98557.48;105837;1254;71446;-28
2024/03/30 08:11:19;;;;;;;4.90;1.30;;;;;;;20.31;39.47;98557.91;105787;1254;61326;-28
2024/03/30 08:13:47;;;;;;;5.10;1.70;;;;;;;20.53;39.74;98559.54;105912;1256;61237;-27
2024/03/30 08:16:14;;;;;;;6.30;1.50;;;;;;;20.45;39.47;98560.29;105826;1253;74529;-27
2024/03/30 08:18:41;;;;;;;3.10;1.10;;;;;;;20.68;39.98;98557.52;105858;1257;74431;-27
2024/03/30 08:21:08;;;;;;;3.50;0.90;;;;;;;20.77;38.99;98549.31;105796;1254;74491;-26
2024/03/30 08:23:35;;;;;;;4.70;1.60;;;;;;;20.68;38.45;98549.95;105763;1254;61327;-27
2024/03/30 08:26:02;;;;;;;1.90;0.90;;;;;;;20.76;38.54;98546.17;105760;1252;61286;-27
2024/03/30 08:28:29;;;;;;;2.90;1.10;;;;;;;20.96;38.10;98551.73;105872;1254;74477;-29
2024/03/30 08:30:56;;;;;;;4.50;1.60;;;;;;;21.08;38.21;98552.68;105665;1260;74163;-28
2024/03/30 08:33:23;;;;;;;2.50;0.80;;;;;;;21.18;37.68;98545.48;105516;1257;72518;-28
2024/03/30 08:35:54;;;;;;;4.30;1.60;;;;;;;20.97;37.92;98547.51;105815;1257;61257;-27
2024/03/30 08:38:21;;;;;;;3.80;0.90;;;;;;;20.80;38.03;98548.77;105756;1256;61270;-27
2024/03/30 08:40:49;;;;;;;3.10;1.40;;;;;;;21.02;37.59;98547.10;105818;1257;76206;-28
2024/03/30 08:43:17;;;;;;;4.90;1.60;;;;;;;21.19;37.71;98541.30;105815;1255;75630;-27
2024/03/30 08:45:44;;;;;;;3.70;1.40;;;;;;;21.23;38.00;98539.91;105867;1254;74302;-27
2024/03/30 08:48:13;;;;;;;7.20;1.20;;;;;;;21.38;37.84;98542.59;105826;1255;61470;-26
2024/03/30 08:50:40;;;;;;;4.60;1.60;;;;;;;21.16;37.96;98534.13;105731;1252;61972;-27
2024/03/30 08:53:09;;;;;;;5.60;1.20;;;;;;;21.11;38.14;98535.66;105959;1257;76458;-27
2024/03/30 08:55:37;;;;;;;7.20;1.30;;;;;;;21.38;38.06;98527.92;105875;1254;76173;-27
2024/03/30 08:58:06;;;;;;;4.00;1.20;;;;;;;21.66;37.68;98533.64;105634;1259;72986;-27
2024/03/30 09:00:33;;;;;;;5.70;1.60;;;;;;;21.96;37.59;98529.20;105578;1257;61182;-27
2024/03/30 09:03:01;;;;;;;4.50;1.10;;;;;;;21.93;37.56;98520.20;105714;1257;61336;-27
2024/03/30 09:05:29;;;;;;;2.50;1.00;;;;;;;21.74;37.17;98520.58;105702;1255;75213;-27
2024/03/30 09:07:57;;;;;;;3.80;1.20;;;;;;;21.34;37.65;98518.29;105865;1257;74084;-27
2024/03/30 09:10:25;;;;;;;4.60;1.60;;;;;;;21.35;37.67;98521.91;105863;1254;73382;-27
2024/03/30 09:12:52;;;;;;;5.70;1.60;;;;;;;21.60;37.31;98519.73;105536;1254;61275;-28
2024/03/30 09:15:19;;;;;;;4.50;1.10;;;;;;;21.24;37.92;98519.16;105557;1254;61320;-28
2024/03/30 09:17:46;;;;;;;4.00;1.50;;;;;;;21.12;37.85;98511.23;105822;1255;76437;-28
2024/03/30 09:20:14;;;;;;;4.90;1.10;;;;;;;20.92;38.38;98513.27;105776;1257;74457;-29
2024/03/30 09:22:42;;;;;;;4.30;1.10;;;;;;;21.03;38.52;98515.30;105916;1254;74372;-28
2024/03/30 09:25:13;;;;;;;8.00;2.00;;;;;;;21.06;38.58;98508.75;105845;1253;61759;-28
2024/03/30 09:27:41;;;;;;;5.20;1.00;;;;;;;21.04;38.71;98505.58;105712;1260;61895;-28
2024/03/30 09:30:10;;;;;;;2.90;1.60;;;;;;;21.27;38.67;98510.98;105863;1254;75952;-25
2024/03/30 09:32:39;;;;;;;7.00;2.20;;;;;;;21.22;38.24;98508.39;105751;1254;76169;-26
2024/03/30 09:35:08;;;;;;;3.90;1.40;;;;;;;21.57;38.06;98504.66;105833;1257;74098;-28
2024/03/30 09:37:36;;;;;;;3.50;1.30;;;;;;;21.60;38.38;98507.73;105704;1253;62147;-27
2024/03/30 09:40:03;;;;;;;5.50;1.30;;;;;;;21.61;37.85;98495.42;105896;1257;61849;-28
2024/03/30 09:42:32;;;;;;;5.40;1.30;;;;;;;21.68;37.64;98502.58;105722;1254;74545;-28
2024/03/30 09:45:00;;;;;;;4.80;1.50;;;;;;;21.87;37.47;98494.70;105736;1258;76170;-25
2024/03/30 09:47:27;;;;;;;7.10;2.00;;;;;;;22.01;37.68;98499.27;105840;1256;71406;-26
2024/03/30 09:49:54;;;;;;;6.10;1.60;;;;;;;22.36;37.25;98503.17;105891;1254;61869;-25
2024/03/30 09:52:23;;;;;;;2.10;0.80;;;;;;;22.32;37.61;98493.40;105876;1256;61574;-28
2024/03/30 09:54:51;;;;;;;5.60;1.60;;;;;;;22.64;37.62;98493.88;105677;1257;76114;-28
2024/03/30 09:57:18;;;;;;;2.30;1.40;;;;;;;23.02;37.27;98483.59;105784;1254;75629;-25
2024/03/30 09:59:46;;;;;;;7.80;1.80;;;;;;;23.25;36.92;98481.70;105842;1255;73991;-26
2024/03/30 10:02:13;;;;;;;7.00;1.90;;;;;;;23.48;36.78;98481.88;105664;1252;61871;-25
2024/03/30 10:04:41;;;;;;;6.30;1.60;;;;;;;23.40;35.80;98481.28;105827;1254;61406;-25
2024/03/30 10:07:19;;;;;;;6.30;1.50;;;;;;;23.18;35.82;98479.96;105689;1255;75485;-25
2024/03/30 10:09:46;;;;;;;9.00;1.90;;;;;;;23.71;35.90;98480.40;105854;1257;74184;-25
2024/03/30 10:12:20;;;;;;;5.80;1.90;;;;;;;23.83;35.06;98476.69;105642;1257;74252;-26
2024/03/30 10:14:47;;;;;;;8.60;1.90;;;;;;;24.16;34.86;98480.42;105604;1252;61351;-25
2024/03/30 10:17:14;;;;;;;6.40;1.90;;;;;;;24.38;34.26;98477.16;105754;1254;61276;-27
2024/03/30 10:19:41;;;;;;;5.80;2.60;;;;;;;24.52;34.39;98475.95;105693;1254;74686;-28
2024/03/30 10:22:08;;;;;;;5.50;1.60;;;;;;;24.52;34.54;98470.89;105627;1254;76180;-28
2024/03/30 10:24:35;;;;;;;5.50;1.50;;;;;;;24.25;34.79;98474.52;105839;1254;74335;-28
2024/03/30 10:27:03;;;;;;;7.50;2.10;;;;;;;24.68;34.92;98474.95;105868;1254;61420;-26
2024/03/30 10:29:29;;;;;;;11.40;2.00;;;;;;;24.88;35.39;98475.73;105864;1258;61169;-26
2024/03/30 10:31:57;;;;;;;5.90;1.80;;;;;;;24.93;34.28;98472.69;105638;1256;76124;-26
2024/03/30 10:34:24;;;;;;;9.30;2.10;;;;;;;24.95;34.34;98468.58;105822;1257;76051;-27
2024/03/30 10:36:57;;;;;;;6.70;2.00;;;;;;;24.98;34.16;98467.99;105676;1254;74165;-27
2024/03/30 10:39:27;;;;;;;7.50;2.10;;;;;;;25.09;34.50;98469.61;105859;1254;61627;-27
2024/03/30 10:41:55;;;;;;;6.60;1.80;;;;;;;25.47;34.37;98467.27;105598;1257;61267;-27
2024/03/30 10:44:26;;;;;;;8.80;2.30;;;;;;;25.09;32.64;98459.36;105860;1257;76335;-27
2024/03/30 10:46:53;;;;;;;5.80;1.80;;;;;;;24.99;32.78;98456.73;105724;1254;74147;-27
2024/03/30 10:49:22;;;;;;;11.40;2.50;;;;;;;25.24;32.00;98451.38;105694;1254;73744;-27
2024/03/30 10:51:52;;;;;;;11.00;2.00;;;;;;;25.16;32.92;98460.86;105604;1258;61260;-27
2024/03/30 10:54:20;;;;;;;9.20;2.60;;;;;;;24.92;33.14;98455.20;105915;1257;61688;-27
2024/03/30 10:56:51;;;;;;;9.60;2.10;;;;;;;25.10;33.33;98456.42;105817;1254;74626;-27
2024/03/30 10:59:18;;;;;;;6.50;2.00;;;;;;;24.96;33.35;98454.00;105682;1258;76304;-27
2024/03/30 11:01:52;;;;;;;8.60;2.50;;;;;;;25.04;33.18;98448.20;105864;1253;73785;-27
2024/03/30 11:04:20;;;;;;;;;;;;;;;24.99;33.19;98447.31;105890;1256;61901;-28
2024/03/30 11:06:47;;;;;;;11.80;2.50;;;;;;;24.57;33.01;98448.87;105875;1258;61352;-27
2024/03/30 11:09:17;;;;;;;8.60;1.80;;;;;;;24.68;33.60;98454.13;105878;1257;76326;-27
2024/03/30 11:11:46;;;;;;;12.10;1.90;;;;;;;24.73;33.41;98455.31;105667;1257;76155;-27
2024/03/30 11:14:14;;;;;;;8.10;1.90;;;;;;;24.55;33.81;98451.80;105879;1256;73526;-27
2024/03/30 11:16:45;;;;;;;8.20;2.10;;;;;;;24.76;33.28;98446.29;105862;1254;61653;-27
2024/03/30 11:19:34;;;;;;;7.30;2.00;;;;;;;24.99;33.18;98449.98;105692;1254;61205;-28
2024/03/30 11:22:20;;;;;;;8.20;2.60;;;;;;;25.14;33.68;98441.08;105857;1255;76066;-27
2024/03/30 11:24:55;;;;;;;5.60;1.90;;;;;;;24.85;33.93;98443.91;105830;1257;74829;-27
2024/03/30 11:27:27;;;;;;;8.00;2.40;;;;;;;24.26;35.11;98440.61;105680;1254;72508;-27
2024/03/30 11:30:00;;;;;;;9.50;2.40;;;;;;;23.96;34.81;98430.63;105705;1253;62124;-27
2024/03/30 11:32:29;;;;;;;10.20;2.30;;;;;;;23.94;35.98;98434.90;105883;1252;61323;-27
2024/03/30 11:35:09;;;;;;;7.70;2.00;;;;;;;23.85;36.31;98431.73;105663;1254;75825;-27
2024/03/30 11:37:39;;;;;;;9.40;2.20;;;;;;;23.47;36.62;98427.33;105580;1257;74316;-26
2024/03/30 11:40:28;;;;;;;9.20;2.10;;;;;;;23.28;36.81;98426.06;105692;1256;74268;-26
2024/03/30 11:43:15;;;;;;;14.20;2.60;;;;;;;23.06;36.63;98425.59;105912;1254;62042;-26
2024/03/30 11:45:43;;;;;;;10.10;2.60;;;;;;;22.96;37.47;98425.46;105814;1252;61851;-26
2024/03/30 11:48:11;;;;;;;9.90;2.30;;;;;;;23.04;37.15;98427.34;105709;1254;74588;-27
2024/03/30 11:50:39;;;;;;;8.80;2.10;;;;;;;23.01;37.63;98423.45;105517;1259;75873;-26